createdAt,value
2023-02-09T00:02:42.026Z,99.90
2023-02-09T00:05:28.450Z,99.90
2023-02-09T00:08:14.776Z,99.90
2023-02-09T00:11:06.189Z,99.90
2023-02-09T00:13:52.023Z,99.90
2023-02-09T00:16:38.600Z,99.90
2023-02-09T00:19:25.531Z,99.90
2023-02-09T00:22:12.214Z,99.90
2023-02-09T00:25:00.317Z,99.90
2023-02-09T00:27:48.258Z,99.90
2023-02-09T00:30:35.012Z,99.90
2023-02-09T00:33:21.667Z,99.90
2023-02-09T00:36:09.345Z,99.90
2023-02-09T00:38:56.205Z,99.90
2023-02-09T00:41:59.872Z,99.90
2023-02-09T00:44:47.873Z,99.90
2023-02-09T00:47:34.385Z,99.90
2023-02-09T00:50:20.882Z,99.90
2023-02-09T00:53:07.515Z,99.90
2023-02-09T00:55:56.299Z,99.90
2023-02-09T00:58:43.052Z,99.90
2023-02-09T01:01:30.957Z,99.90
2023-02-09T01:04:17.702Z,99.90
2023-02-09T01:07:04.293Z,99.90
2023-02-09T01:09:50.758Z,99.90
2023-02-09T01:12:38.928Z,99.90
2023-02-09T01:15:25.551Z,99.90
2023-02-09T01:18:13.468Z,99.90
2023-02-09T01:20:59.992Z,99.90
2023-02-09T01:23:49.087Z,99.90
2023-02-09T01:26:35.457Z,99.90
2023-02-09T01:29:22.485Z,99.90
2023-02-09T01:32:09.080Z,99.90
2023-02-09T01:34:57.101Z,99.90
2023-02-09T01:37:43.807Z,99.90
2023-02-09T01:40:30.411Z,99.90
2023-02-09T01:43:17.225Z,99.90
2023-02-09T01:46:03.990Z,99.90
2023-02-09T01:48:59.796Z,99.90
2023-02-09T01:51:53.595Z,99.90
2023-02-09T01:54:44.332Z,99.90
2023-02-09T01:57:33.722Z,99.90
2023-02-09T02:00:22.340Z,99.90
2023-02-09T02:03:13.909Z,99.90
2023-02-09T02:06:04.470Z,99.90
2023-02-09T02:08:56.385Z,99.90
2023-02-09T02:11:44.974Z,99.90
2023-02-09T02:14:36.446Z,99.90
2023-02-09T02:17:38.825Z,99.90
2023-02-09T02:20:58.483Z,99.90
2023-02-09T02:23:54.907Z,99.90
2023-02-09T02:26:57.386Z,99.90
2023-02-09T02:30:20.100Z,99.90
2023-02-09T02:33:21.050Z,99.90
2023-02-09T02:36:15.876Z,99.90
2023-02-09T02:39:08.237Z,99.90
2023-02-09T02:42:19.455Z,99.90
2023-02-09T02:45:12.092Z,99.90
2023-02-09T02:48:08.583Z,99.90
2023-02-09T02:51:00.829Z,99.90
2023-02-09T02:53:52.937Z,99.90
2023-02-09T02:56:42.739Z,99.90
2023-02-09T02:59:33.252Z,99.90
2023-02-09T03:02:24.196Z,99.90
2023-02-09T03:05:12.178Z,99.90
2023-02-09T03:08:00.118Z,99.90
2023-02-09T03:10:47.312Z,99.90
2023-02-09T03:13:42.084Z,99.90
2023-02-09T03:16:36.342Z,99.90
2023-02-09T03:19:35.933Z,99.90
2023-02-09T03:22:31.278Z,99.90
2023-02-09T03:25:23.979Z,99.90
2023-02-09T03:28:15.265Z,99.90
2023-02-09T03:31:03.455Z,99.90
2023-02-09T03:33:51.546Z,99.90
2023-02-09T03:36:39.687Z,99.90
2023-02-09T03:39:26.098Z,99.90
2023-02-09T03:42:14.100Z,99.90
2023-02-09T03:45:00.815Z,99.90
2023-02-09T03:47:47.308Z,99.90
2023-02-09T03:50:34.706Z,99.90
2023-02-09T03:53:21.183Z,99.90
2023-02-09T03:56:09.258Z,99.90
2023-02-09T03:58:57.087Z,99.90
2023-02-09T04:01:43.611Z,99.90
2023-02-09T04:04:29.958Z,99.90
2023-02-09T04:07:16.502Z,99.90
2023-02-09T04:10:03.110Z,99.90
2023-02-09T04:12:49.744Z,99.90
2023-02-09T04:15:39.216Z,99.90
2023-02-09T04:18:25.670Z,99.90
2023-02-09T04:21:12.068Z,99.90
2023-02-09T04:23:58.697Z,99.90
2023-02-09T04:26:45.475Z,99.90
2023-02-09T04:29:32.092Z,99.90
2023-02-09T04:32:19.817Z,99.90
2023-02-09T04:35:09.299Z,99.90
2023-02-09T04:37:55.791Z,99.90
2023-02-09T04:40:42.248Z,99.90
2023-02-09T04:43:29.481Z,99.90
2023-02-09T04:46:18.004Z,99.90
2023-02-09T04:49:07.871Z,99.90
2023-02-09T04:51:54.098Z,99.90
2023-02-09T04:54:40.584Z,99.90
2023-02-09T04:57:44.341Z,99.90
2023-02-09T05:00:30.981Z,99.90
2023-02-09T05:03:17.586Z,99.90
2023-02-09T05:06:06.600Z,99.90
2023-02-09T05:08:53.623Z,99.90
2023-02-09T05:11:39.839Z,99.90
2023-02-09T05:14:26.420Z,99.90
2023-02-09T05:17:13.183Z,99.90
2023-02-09T05:19:59.647Z,99.90
2023-02-09T05:22:49.332Z,99.90
2023-02-09T05:25:36.837Z,99.90
2023-02-09T05:28:23.800Z,99.90
2023-02-09T05:31:10.393Z,99.90
2023-02-09T05:33:56.929Z,99.90
2023-02-09T05:36:43.566Z,99.90
2023-02-09T05:39:31.163Z,99.90
2023-02-09T05:42:18.078Z,99.90
2023-02-09T05:45:04.969Z,99.90
2023-02-09T05:47:51.254Z,99.90
2023-02-09T05:50:37.832Z,99.90
2023-02-09T05:53:24.138Z,99.90
2023-02-09T05:56:11.888Z,99.90
2023-02-09T05:58:58.696Z,99.90
2023-02-09T06:01:45.377Z,99.90
2023-02-09T06:04:32.388Z,99.90
2023-02-09T06:07:18.976Z,99.90
2023-02-09T06:10:05.706Z,99.90
2023-02-09T06:12:53.608Z,99.90
2023-02-09T06:15:39.909Z,99.90
2023-02-09T06:18:26.452Z,99.90
2023-02-09T06:21:13.233Z,99.90
2023-02-09T06:23:59.788Z,99.90
2023-02-09T06:26:46.144Z,99.90
2023-02-09T06:29:34.023Z,99.90
2023-02-09T06:32:20.231Z,99.90
2023-02-09T06:35:07.246Z,99.90
2023-02-09T06:37:57.050Z,99.90
2023-02-09T06:40:43.635Z,99.90
2023-02-09T06:43:30.455Z,99.90
2023-02-09T06:46:18.467Z,99.90
2023-02-09T06:49:05.090Z,99.90
2023-02-09T06:51:51.884Z,99.90
2023-02-09T06:54:38.813Z,99.90
2023-02-09T06:57:25.160Z,99.90
2023-02-09T07:00:13.975Z,99.90
2023-02-09T07:03:01.947Z,99.90
2023-02-09T07:05:48.748Z,99.90
2023-02-09T07:08:35.302Z,99.90
2023-02-09T07:11:21.912Z,99.90
2023-02-09T07:14:08.342Z,99.90
2023-02-09T07:16:54.767Z,99.90
2023-02-09T07:19:42.620Z,99.90
2023-02-09T07:22:29.274Z,99.90
2023-02-09T07:25:15.444Z,99.90
2023-02-09T07:28:01.727Z,99.90
2023-02-09T07:30:50.157Z,99.90
2023-02-09T07:33:37.493Z,99.90
2023-02-09T07:36:25.946Z,99.90
2023-02-09T07:39:12.286Z,99.90
2023-02-09T07:41:59.268Z,99.90
2023-02-09T07:44:45.553Z,99.90
2023-02-09T07:47:32.048Z,99.90
2023-02-09T07:50:20.105Z,99.90
2023-02-09T07:53:07.929Z,99.90
2023-02-09T07:55:54.432Z,99.90
2023-02-09T07:58:40.875Z,99.90
2023-02-09T08:01:27.643Z,99.90
2023-02-09T08:04:14.241Z,99.90
2023-02-09T08:07:01.481Z,99.90
2023-02-09T08:09:49.376Z,99.90
2023-02-09T08:12:53.441Z,99.90
2023-02-09T08:15:46.250Z,99.90
2023-02-09T08:18:37.223Z,99.90
2023-02-09T08:21:24.119Z,99.90
2023-02-09T08:24:12.439Z,99.90
2023-02-09T08:27:00.770Z,99.90
2023-02-09T08:29:48.961Z,99.90
2023-02-09T08:32:35.908Z,99.90
2023-02-09T08:35:22.383Z,99.90
2023-02-09T08:38:08.712Z,99.90
2023-02-09T08:40:55.081Z,99.90
2023-02-09T08:43:43.342Z,99.90
2023-02-09T08:46:29.922Z,99.90
2023-02-09T08:49:16.645Z,99.90
2023-02-09T08:52:03.014Z,99.90
2023-02-09T08:54:49.289Z,99.90
2023-02-09T08:57:43.844Z,99.90
2023-02-09T09:00:32.665Z,99.90
2023-02-09T09:03:19.111Z,99.90
2023-02-09T09:06:07.754Z,99.90
2023-02-09T09:08:54.389Z,99.90
2023-02-09T09:11:41.076Z,99.90
2023-02-09T09:14:27.870Z,99.90
2023-02-09T09:17:15.849Z,99.90
2023-02-09T09:20:02.252Z,99.90
2023-02-09T09:22:48.692Z,99.90
2023-02-09T09:25:35.114Z,99.90
2023-02-09T09:28:22.317Z,99.90
2023-02-09T09:31:09.632Z,99.80
2023-02-09T09:33:57.889Z,99.60
2023-02-09T09:36:44.152Z,99.10
2023-02-09T09:39:30.672Z,99.50
2023-02-09T09:42:25.210Z,99.40
2023-02-09T09:45:15.499Z,99.20
2023-02-09T09:48:02.144Z,98.80
2023-02-09T09:50:53.157Z,99.40
2023-02-09T09:53:41.678Z,99.30
2023-02-09T09:56:30.449Z,99.10
2023-02-09T09:59:20.032Z,98.70
2023-02-09T10:02:19.826Z,99.90
2023-02-09T10:05:23.575Z,99.90
2023-02-09T10:08:18.856Z,97.10
2023-02-09T10:11:06.929Z,97.40
2023-02-09T10:13:55.014Z,96.60
2023-02-09T10:16:44.287Z,96.30
2023-02-09T10:19:30.623Z,96.40
2023-02-09T10:22:21.911Z,96.80
2023-02-09T10:25:38.316Z,96.60
2023-02-09T10:28:26.656Z,96.50
2023-02-09T10:31:19.947Z,96.20
2023-02-09T10:34:12.767Z,95.80
2023-02-09T10:37:19.199Z,96.20
2023-02-09T10:40:15.887Z,96.20
2023-02-09T10:43:07.990Z,96.40
2023-02-09T10:45:57.046Z,96.30
2023-02-09T10:48:45.434Z,96.40
2023-02-09T10:51:33.589Z,96.70
2023-02-09T10:54:22.149Z,96.30
2023-02-09T10:57:25.580Z,96.60
2023-02-09T11:00:36.131Z,95.70
2023-02-09T11:03:25.217Z,94.80
2023-02-09T11:06:20.437Z,94.60
2023-02-09T11:09:11.776Z,95.00
2023-02-09T11:11:58.772Z,95.70
2023-02-09T11:14:45.502Z,95.60
2023-02-09T11:17:37.407Z,96.20
2023-02-09T11:20:30.828Z,96.20
2023-02-09T11:23:36.679Z,96.30
2023-02-09T11:26:42.317Z,96.00
2023-02-09T11:29:34.373Z,96.00
2023-02-09T11:32:24.890Z,95.70
2023-02-09T11:35:14.505Z,95.60
2023-02-09T11:38:04.255Z,96.30
2023-02-09T11:40:54.855Z,95.80
2023-02-09T11:43:42.465Z,95.40
2023-02-09T11:46:31.852Z,95.40
2023-02-09T11:49:22.190Z,95.70
2023-02-09T11:52:12.255Z,95.70
2023-02-09T11:55:01.374Z,95.50
2023-02-09T11:57:53.529Z,95.90
2023-02-09T12:00:54.836Z,96.10
2023-02-09T12:03:49.903Z,96.70
2023-02-09T12:06:42.244Z,97.30
2023-02-09T12:09:44.419Z,97.40
2023-02-09T12:12:38.502Z,97.70
2023-02-09T12:15:31.773Z,98.50
2023-02-09T12:18:20.862Z,98.40
2023-02-09T12:21:08.678Z,98.40
2023-02-09T12:23:54.958Z,98.80
2023-02-09T12:26:46.648Z,99.00
2023-02-09T12:29:38.865Z,98.90
2023-02-09T12:32:43.452Z,98.80
2023-02-09T12:35:39.879Z,98.80
2023-02-09T12:38:27.067Z,98.70
2023-02-09T12:41:14.782Z,98.60
2023-02-09T12:44:37.582Z,99.20
2023-02-09T12:47:58.470Z,99.80
2023-02-09T12:50:51.277Z,99.30
2023-02-09T12:53:56.101Z,99.30
2023-02-09T12:56:42.568Z,99.70
2023-02-09T12:59:30.276Z,99.70
2023-02-09T13:02:25.266Z,99.40
2023-02-09T13:05:15.364Z,99.10
2023-02-09T13:08:07.856Z,98.10
2023-02-09T13:11:00.414Z,98.00
2023-02-09T13:13:53.839Z,98.10
2023-02-09T13:17:07.314Z,98.10
2023-02-09T13:20:17.599Z,97.60
2023-02-09T13:23:30.341Z,97.90
2023-02-09T13:26:23.719Z,98.20
2023-02-09T13:29:20.863Z,98.10
2023-02-09T13:32:25.057Z,98.70
2023-02-09T13:35:21.255Z,98.50
2023-02-09T13:38:16.980Z,98.70
2023-02-09T13:41:06.326Z,98.70
2023-02-09T13:43:52.646Z,98.20
2023-02-09T13:46:39.369Z,98.10
2023-02-09T13:49:29.086Z,97.70
2023-02-09T13:52:17.897Z,97.70
2023-02-09T13:55:13.300Z,97.50
2023-02-09T13:58:03.691Z,98.00
2023-02-09T14:00:52.433Z,98.20
2023-02-09T14:03:57.047Z,98.00
2023-02-09T14:06:50.692Z,98.40
2023-02-09T14:09:44.912Z,98.80
2023-02-09T14:12:55.563Z,99.10
2023-02-09T14:16:03.439Z,99.40
2023-02-09T14:18:52.498Z,99.50
2023-02-09T14:21:47.445Z,99.90
2023-02-09T14:24:43.644Z,99.90
2023-02-09T14:27:32.885Z,99.90
2023-02-09T14:30:22.010Z,99.90
2023-02-09T14:33:24.709Z,99.90
2023-02-09T14:36:26.069Z,99.90
2023-02-09T14:39:16.589Z,99.90
2023-02-09T14:42:20.552Z,99.90
2023-02-09T14:45:29.913Z,99.90
2023-02-09T14:48:19.435Z,99.90
2023-02-09T14:51:15.455Z,99.90
2023-02-09T14:54:01.951Z,99.90
2023-02-09T14:56:49.927Z,99.90
2023-02-09T14:59:36.520Z,99.90
2023-02-09T15:02:26.067Z,99.90
2023-02-09T15:05:12.751Z,99.90
2023-02-09T15:08:05.740Z,99.90
2023-02-09T15:10:54.878Z,99.90
2023-02-09T15:13:42.838Z,99.90
2023-02-09T15:16:29.476Z,99.90
2023-02-09T15:19:18.074Z,99.90
2023-02-09T15:22:07.672Z,99.90
2023-02-09T15:24:54.865Z,99.90
2023-02-09T15:27:51.292Z,99.90
2023-02-09T15:30:39.189Z,99.90
2023-02-09T15:33:27.162Z,99.90
2023-02-09T15:36:19.129Z,99.90
2023-02-09T15:39:13.385Z,99.90
2023-02-09T15:42:17.296Z,99.90
2023-02-09T15:45:34.723Z,99.90
2023-02-09T15:48:22.674Z,99.90
2023-02-09T15:51:09.589Z,99.90
2023-02-09T15:54:00.674Z,99.90
2023-02-09T15:56:47.689Z,99.90
2023-02-09T15:59:34.562Z,99.90
2023-02-09T16:02:20.998Z,99.90
2023-02-09T16:05:09.697Z,99.90
2023-02-09T16:07:57.188Z,99.90
2023-02-09T16:10:43.790Z,99.90
2023-02-09T16:13:30.308Z,99.90
2023-02-09T16:16:18.244Z,99.90
2023-02-09T16:19:05.076Z,99.90
2023-02-09T16:21:54.289Z,99.90
2023-02-09T16:24:44.767Z,99.90
2023-02-09T16:27:32.040Z,99.90
2023-02-09T16:30:21.861Z,99.90
2023-02-09T16:33:08.147Z,99.90
2023-02-09T16:35:57.695Z,99.90
2023-02-09T16:38:46.030Z,99.90
2023-02-09T16:41:50.124Z,99.90
2023-02-09T16:44:37.736Z,99.90
2023-02-09T16:47:26.878Z,99.90
2023-02-09T16:50:22.625Z,99.90
2023-02-09T16:53:17.400Z,99.90
2023-02-09T16:56:10.097Z,99.90
2023-02-09T16:58:56.743Z,99.90
2023-02-09T17:01:43.330Z,99.90
2023-02-09T17:04:29.676Z,99.90
2023-02-09T17:07:16.006Z,99.90
2023-02-09T17:10:02.491Z,99.90
2023-02-09T17:12:52.604Z,99.90
2023-02-09T17:15:43.806Z,99.90
2023-02-09T17:18:32.336Z,99.90
2023-02-09T17:21:22.504Z,99.90
2023-02-09T17:24:14.553Z,99.90
2023-02-09T17:27:01.114Z,99.90
2023-02-09T17:29:49.012Z,99.90
2023-02-09T17:32:35.541Z,99.90
2023-02-09T17:35:44.525Z,99.90
2023-02-09T17:38:30.767Z,99.90
2023-02-09T17:41:20.867Z,99.90
2023-02-09T17:44:24.038Z,99.90
2023-02-09T17:47:19.023Z,99.90
2023-02-09T17:50:06.113Z,99.90
2023-02-09T17:52:53.408Z,99.90
2023-02-09T17:55:40.047Z,99.90
2023-02-09T17:58:26.696Z,99.90
2023-02-09T18:01:26.362Z,99.90
2023-02-09T18:04:18.230Z,99.90
2023-02-09T18:07:04.549Z,99.90
2023-02-09T18:09:51.826Z,99.90
2023-02-09T18:12:38.217Z,99.90
2023-02-09T18:15:27.269Z,99.90
2023-02-09T18:18:13.813Z,99.90
2023-02-09T18:21:01.948Z,99.90
2023-02-09T18:23:48.331Z,99.90
2023-02-09T18:26:34.869Z,99.90
2023-02-09T18:29:23.580Z,99.90
2023-02-09T18:32:13.620Z,99.90
2023-02-09T18:35:00.140Z,99.90
2023-02-09T18:37:48.124Z,99.90
2023-02-09T18:40:35.385Z,99.90
2023-02-09T18:43:21.901Z,99.90
2023-02-09T18:46:08.274Z,99.90
2023-02-09T18:48:55.069Z,99.90
2023-02-09T18:51:42.226Z,99.90
2023-02-09T18:54:31.168Z,99.90
2023-02-09T18:57:18.042Z,99.90
2023-02-09T19:00:06.467Z,99.90
2023-02-09T19:02:57.478Z,99.90
2023-02-09T19:05:44.139Z,99.90
2023-02-09T19:08:30.483Z,99.90
2023-02-09T19:11:20.428Z,99.90
2023-02-09T19:14:24.078Z,99.90
2023-02-09T19:17:15.475Z,99.90
2023-02-09T19:20:03.797Z,99.90
2023-02-09T19:22:51.532Z,99.90
2023-02-09T19:25:37.901Z,99.90
2023-02-09T19:28:25.663Z,99.90
2023-02-09T19:31:13.764Z,99.90
2023-02-09T19:34:00.433Z,99.90
2023-02-09T19:36:47.114Z,99.90
2023-02-09T19:39:35.019Z,99.90
2023-02-09T19:42:22.136Z,99.90
2023-02-09T19:45:10.611Z,99.90
2023-02-09T19:47:57.501Z,99.90
2023-02-09T19:50:43.925Z,99.90
2023-02-09T19:53:30.336Z,99.90
2023-02-09T19:56:17.856Z,99.90
2023-02-09T19:59:04.157Z,99.90
2023-02-09T20:01:51.868Z,99.90
2023-02-09T20:04:38.559Z,99.90
2023-02-09T20:07:25.371Z,99.90
2023-02-09T20:10:12.266Z,99.90
2023-02-09T20:12:58.937Z,99.90
2023-02-09T20:15:46.142Z,99.90
2023-02-09T20:18:34.210Z,99.90
2023-02-09T20:21:23.110Z,99.90
2023-02-09T20:24:12.014Z,99.90
2023-02-09T20:26:58.669Z,99.90
2023-02-09T20:29:45.572Z,99.90
2023-02-09T20:32:32.301Z,99.90
2023-02-09T20:35:20.141Z,99.90
2023-02-09T20:38:07.274Z,99.90
2023-02-09T20:40:54.300Z,99.90
2023-02-09T20:43:59.046Z,99.90
2023-02-09T20:46:58.359Z,99.90
2023-02-09T20:49:44.919Z,99.90
2023-02-09T20:52:34.531Z,99.90
2023-02-09T20:55:22.615Z,99.90
2023-02-09T20:58:11.665Z,99.90
2023-02-09T21:00:58.416Z,99.90
2023-02-09T21:03:45.161Z,99.90
2023-02-09T21:06:31.530Z,99.90
2023-02-09T21:09:26.014Z,99.90
2023-02-09T21:12:12.731Z,99.90
2023-02-09T21:14:59.462Z,99.90
2023-02-09T21:17:48.482Z,99.90
2023-02-09T21:20:35.638Z,99.90
2023-02-09T21:23:22.323Z,99.90
2023-02-09T21:26:12.567Z,99.90
2023-02-09T21:28:59.353Z,99.90
2023-02-09T21:31:46.052Z,99.90
2023-02-09T21:34:33.184Z,99.90
2023-02-09T21:37:19.930Z,99.90
2023-02-09T21:40:06.924Z,99.90
2023-02-09T21:42:54.977Z,99.90
2023-02-09T21:45:41.777Z,99.90
2023-02-09T21:48:28.361Z,99.90
2023-02-09T21:51:14.841Z,99.90
2023-02-09T21:54:01.283Z,99.90
2023-02-09T21:56:47.567Z,99.90
2023-02-09T21:59:35.492Z,99.90
2023-02-09T22:02:22.928Z,99.90
2023-02-09T22:05:09.897Z,99.90
2023-02-09T22:07:56.522Z,99.90
2023-02-09T22:10:43.126Z,99.90
2023-02-09T22:13:30.433Z,99.90
2023-02-09T22:16:20.845Z,99.90
2023-02-09T22:19:07.920Z,99.90
2023-02-09T22:21:56.714Z,99.90
2023-02-09T22:24:43.105Z,99.90
2023-02-09T22:27:29.497Z,99.90
2023-02-09T22:30:16.325Z,99.90
2023-02-09T22:33:04.048Z,99.90
2023-02-09T22:35:50.804Z,99.90
2023-02-09T22:38:37.512Z,99.90
2023-02-09T22:41:24.992Z,99.90
2023-02-09T22:44:13.556Z,99.90
2023-02-09T22:46:59.916Z,99.90
2023-02-09T22:49:47.618Z,99.90
2023-02-09T22:52:34.354Z,99.90
2023-02-09T22:55:20.768Z,99.90
2023-02-09T22:58:07.454Z,99.90
2023-02-09T23:00:55.068Z,99.90
2023-02-09T23:03:42.222Z,99.90
2023-02-09T23:06:30.961Z,99.90
2023-02-09T23:09:17.777Z,99.90
2023-02-09T23:12:04.238Z,99.90
2023-02-09T23:14:50.676Z,99.90
2023-02-09T23:17:37.070Z,99.90
2023-02-09T23:20:23.525Z,99.90
2023-02-09T23:23:11.498Z,99.90
2023-02-09T23:25:58.369Z,99.90
2023-02-09T23:28:44.866Z,99.90
2023-02-09T23:31:31.935Z,99.90
2023-02-09T23:34:21.499Z,99.90
2023-02-09T23:37:18.166Z,99.90
2023-02-09T23:40:12.523Z,99.90
2023-02-09T23:42:58.925Z,99.90
2023-02-09T23:45:45.343Z,99.90
2023-02-09T23:48:31.908Z,99.90
2023-02-09T23:51:20.424Z,99.90
2023-02-09T23:54:08.113Z,99.90
2023-02-09T23:56:55.848Z,99.90
2023-02-09T23:59:42.421Z,99.90
